Time;durP1;ratioP1;P1;durP2;ratioP2;P2;SDS_P1;SDS_P2;PMS_P1;PMS_P2;Temp;Humidity;BMP_temperature;BMP_pressure;BME280_temperature;BME280_humidity;BME280_pressure;Samples;Min_cycle;Max_cycle;Signal;HPM_P1;HPM_P2
2023/03/15 00:00:09;;;;;;;10.15;2.95;;;2.80;99.90;;;;;;2086317;28;20130;-82
2023/03/15 00:01:14;;;;;;;9.85;2.80;;;2.80;99.90;;;;;;2086066;28;20124;-77
2023/03/15 00:02:14;;;;;;;10.18;3.50;;;2.80;99.90;;;;;;2080765;28;20029;-81
2023/03/15 00:03:15;;;;;;;12.52;2.92;;;2.80;99.90;;;;;;2087766;28;20036;-81
2023/03/15 00:04:16;;;;;;;6.90;2.50;;;2.70;99.90;;;;;;2086634;28;20147;-81
2023/03/15 00:05:16;;;;;;;13.18;2.90;;;2.70;99.90;;;;;;2075988;28;20033;-81
2023/03/15 00:06:17;;;;;;;9.35;2.63;;;2.70;99.90;;;;;;2079794;28;20275;-81
2023/03/15 00:07:17;;;;;;;10.95;2.92;;;2.70;99.90;;;;;;2087014;28;20044;-82
2023/03/15 00:08:20;;;;;;;12.18;3.40;;;2.70;99.90;;;;;;2080774;28;20412;-81
2023/03/15 00:09:21;;;;;;;11.55;3.25;;;2.70;99.90;;;;;;2077246;28;20033;-81
2023/03/15 00:10:21;;;;;;;10.48;2.72;;;2.70;99.90;;;;;;2081020;28;20128;-80
2023/03/15 00:11:22;;;;;;;14.15;3.40;;;2.70;99.90;;;;;;2070767;28;20112;-81
2023/03/15 00:12:22;;;;;;;11.70;3.08;;;2.70;99.90;;;;;;2084947;28;20032;-81
2023/03/15 00:13:23;;;;;;;11.43;2.90;;;2.70;99.90;;;;;;2080642;28;20576;-82
2023/03/15 00:14:24;;;;;;;10.68;2.97;;;2.70;99.90;;;;;;2073087;28;20021;-81
2023/03/15 00:15:24;;;;;;;9.48;2.90;;;2.70;99.90;;;;;;2077796;28;20034;-81
2023/03/15 00:16:25;;;;;;;11.73;3.08;;;2.80;99.90;;;;;;2077729;28;20125;-82
2023/03/15 00:17:26;;;;;;;11.63;2.70;;;2.80;99.90;;;;;;2088503;28;20064;-81
2023/03/15 00:18:27;;;;;;;8.80;2.55;;;2.80;99.90;;;;;;2078793;28;20037;-81
2023/03/15 00:19:28;;;;;;;11.70;3.15;;;2.80;99.90;;;;;;2074840;28;20025;-81
2023/03/15 00:20:29;;;;;;;8.55;2.65;;;2.80;99.90;;;;;;2075467;28;20057;-82
2023/03/15 00:21:30;;;;;;;14.00;3.50;;;2.70;99.90;;;;;;2086456;28;20033;-81
2023/03/15 00:22:30;;;;;;;11.60;3.00;;;2.70;99.90;;;;;;2084729;28;20035;-82
2023/03/15 00:23:31;;;;;;;12.65;2.88;;;2.80;99.90;;;;;;2087292;28;20029;-81
2023/03/15 00:24:32;;;;;;;15.70;3.30;;;2.70;99.90;;;;;;2077018;28;20518;-81
2023/03/15 00:25:32;;;;;;;13.30;3.30;;;2.80;99.90;;;;;;2077629;28;20050;-81
2023/03/15 00:26:33;;;;;;;12.73;3.03;;;2.80;99.90;;;;;;2086176;28;20033;-82
2023/03/15 00:27:34;;;;;;;13.02;3.30;;;2.80;99.90;;;;;;2089964;28;20036;-81
2023/03/15 00:28:34;;;;;;;9.80;3.17;;;2.90;99.90;;;;;;2085670;28;20060;-81
2023/03/15 00:29:35;;;;;;;10.18;3.15;;;2.90;99.90;;;;;;2084260;28;20595;-82
2023/03/15 00:30:36;;;;;;;8.13;2.83;;;2.90;99.90;;;;;;2085919;28;20075;-80
2023/03/15 00:31:37;;;;;;;10.25;3.25;;;2.90;99.90;;;;;;2087915;28;20032;-82
2023/03/15 00:32:37;;;;;;;9.95;2.97;;;2.90;99.90;;;;;;2085917;28;20523;-81
2023/03/15 00:33:38;;;;;;;10.27;3.30;;;2.80;99.90;;;;;;2086258;28;20021;-82
2023/03/15 00:34:39;;;;;;;8.63;3.10;;;2.80;99.90;;;;;;2089553;28;20052;-84
2023/03/15 00:35:42;;;;;;;9.63;3.42;;;2.80;99.90;;;;;;2088139;28;20027;-82
2023/03/15 00:36:42;;;;;;;12.45;3.53;;;2.80;99.90;;;;;;2084529;28;20039;-82
2023/03/15 00:37:44;;;;;;;10.30;3.40;;;2.80;99.90;;;;;;2086311;28;20116;-81
2023/03/15 00:38:44;;;;;;;9.15;3.53;;;2.80;99.90;;;;;;2083759;28;20025;-82
2023/03/15 00:39:46;;;;;;;7.55;3.10;;;2.80;99.90;;;;;;2087276;28;20048;-82
2023/03/15 00:40:47;;;;;;;6.78;3.15;;;2.80;99.90;;;;;;2087324;28;20031;-82
2023/03/15 00:41:48;;;;;;;9.32;3.05;;;2.80;99.90;;;;;;2088263;28;20510;-82
2023/03/15 00:42:49;;;;;;;12.80;3.22;;;2.80;99.90;;;;;;2077654;28;20029;-81
2023/03/15 00:43:50;;;;;;;9.65;3.53;;;2.80;99.90;;;;;;2069355;28;20028;-77
2023/03/15 00:44:50;;;;;;;9.52;3.50;;;2.80;99.90;;;;;;2077675;28;20807;-82
2023/03/15 00:45:51;;;;;;;10.13;3.50;;;2.80;99.90;;;;;;2076117;28;20029;-77
2023/03/15 00:46:52;;;;;;;9.52;3.30;;;2.70;99.90;;;;;;2078382;28;20505;-78
2023/03/15 00:47:53;;;;;;;11.70;3.70;;;2.70;99.90;;;;;;2077647;28;20033;-80
2023/03/15 00:48:54;;;;;;;8.50;3.25;;;2.60;99.90;;;;;;2078891;28;20419;-79
2023/03/15 00:49:55;;;;;;;8.88;3.30;;;2.60;99.90;;;;;;2085123;28;20028;-80
2023/03/15 00:51:14;;;;;;;9.82;3.20;;;2.60;99.90;;;;;;2082714;28;20098;-78
2023/03/15 00:52:16;;;;;;;10.52;3.50;;;2.50;99.90;;;;;;2085174;28;20559;-79
2023/03/15 00:53:21;;;;;;;11.32;3.58;;;2.50;99.90;;;;;;2083818;28;20033;-80
2023/03/15 00:54:23;;;;;;;8.13;3.20;;;2.50;99.90;;;;;;2085856;28;22550;-79
2023/03/15 00:55:25;;;;;;;9.45;3.38;;;2.50;99.90;;;;;;2086176;28;20033;-79
2023/03/15 00:56:28;;;;;;;9.02;3.20;;;2.50;99.90;;;;;;2086850;28;20032;-79
2023/03/15 00:57:33;;;;;;;11.10;3.15;;;2.40;99.90;;;;;;2086645;28;20046;-79
2023/03/15 00:58:34;;;;;;;9.98;2.85;;;2.40;99.90;;;;;;2086785;28;20059;-79
2023/03/15 00:59:34;;;;;;;8.40;3.20;;;2.40;99.90;;;;;;2084594;28;20048;-79
2023/03/15 01:00:37;;;;;;;10.48;3.30;;;2.40;99.90;;;;;;2082934;28;20037;-79
2023/03/15 01:01:39;;;;;;;9.50;3.05;;;2.40;99.90;;;;;;2089485;28;20643;-80
2023/03/15 01:02:40;;;;;;;10.45;3.20;;;2.40;99.90;;;;;;2087066;28;20056;-80
2023/03/15 01:03:41;;;;;;;12.85;3.50;;;2.40;99.90;;;;;;2085610;28;20029;-80
2023/03/15 01:04:42;;;;;;;15.02;3.83;;;2.40;99.90;;;;;;2068727;28;20663;-82
2023/03/15 01:05:42;;;;;;;12.25;3.40;;;2.40;99.90;;;;;;2075940;28;20031;-80
2023/03/15 01:06:43;;;;;;;12.98;3.47;;;2.40;99.90;;;;;;2085671;28;20056;-79
2023/03/15 01:07:44;;;;;;;10.43;3.17;;;2.40;99.90;;;;;;2087175;28;20480;-80
2023/03/15 01:08:45;;;;;;;8.40;3.03;;;2.40;99.90;;;;;;2080885;28;20500;-79
2023/03/15 01:09:45;;;;;;;11.73;3.28;;;2.30;99.90;;;;;;2081097;28;20079;-80
2023/03/15 01:10:46;;;;;;;12.43;3.40;;;2.30;99.90;;;;;;2078858;28;20040;-80
2023/03/15 01:11:47;;;;;;;9.63;3.15;;;2.30;99.90;;;;;;2085960;28;20383;-79
2023/03/15 01:12:47;;;;;;;11.77;3.53;;;2.30;99.90;;;;;;2086802;28;20231;-83
2023/03/15 01:13:51;;;;;;;11.10;3.08;;;2.30;99.90;;;;;;2088372;28;20028;-80
2023/03/15 01:14:52;;;;;;;10.30;3.15;;;2.30;99.90;;;;;;2074556;28;20116;-80
2023/03/15 01:15:52;;;;;;;10.20;3.00;;;2.30;99.90;;;;;;2076708;28;20030;-81
2023/03/15 01:16:53;;;;;;;13.18;3.30;;;2.30;99.90;;;;;;2082595;28;20032;-81
2023/03/15 01:17:55;;;;;;;9.27;3.05;;;2.30;99.90;;;;;;2085664;28;20534;-81
2023/03/15 01:18:58;;;;;;;12.27;3.33;;;2.20;99.90;;;;;;2085508;28;20021;-80
2023/03/15 01:19:59;;;;;;;9.35;3.22;;;2.20;99.90;;;;;;2069045;28;20033;-80
2023/03/15 01:21:00;;;;;;;9.18;2.75;;;2.20;99.90;;;;;;2078277;28;20021;-80
2023/03/15 01:22:00;;;;;;;12.48;3.13;;;2.20;99.90;;;;;;2076759;28;20087;-79
2023/03/15 01:23:01;;;;;;;7.68;2.95;;;2.20;99.90;;;;;;2070472;28;20036;-79
2023/03/15 01:24:01;;;;;;;8.88;2.97;;;2.20;99.90;;;;;;2087711;28;20029;-79
2023/03/15 01:25:02;;;;;;;9.63;3.08;;;2.20;99.90;;;;;;2086629;28;20024;-80
2023/03/15 01:26:05;;;;;;;8.40;2.90;;;2.20;99.90;;;;;;2084405;28;20584;-80
2023/03/15 01:27:05;;;;;;;9.45;3.03;;;2.20;99.90;;;;;;2076606;28;20022;-80
2023/03/15 01:28:06;;;;;;;7.85;2.88;;;2.20;99.90;;;;;;2081721;28;20053;-80
2023/03/15 01:29:07;;;;;;;10.43;2.95;;;2.20;99.90;;;;;;2083499;28;20342;-79
2023/03/15 01:30:08;;;;;;;7.63;2.90;;;2.20;99.90;;;;;;2073579;28;20076;-80
2023/03/15 01:31:24;;;;;;;7.93;2.90;;;2.20;99.90;;;;;;2073729;28;20420;-81
2023/03/15 01:32:25;;;;;;;8.45;3.10;;;2.20;99.90;;;;;;2066571;28;20026;-81
2023/03/15 01:33:27;;;;;;;9.93;3.22;;;2.20;99.90;;;;;;2081206;28;20040;-80
2023/03/15 01:34:27;;;;;;;8.75;3.42;;;2.20;99.90;;;;;;2089796;28;20573;-81
2023/03/15 01:35:28;;;;;;;9.05;3.20;;;2.20;99.90;;;;;;2082487;28;20025;-81
2023/03/15 01:36:29;;;;;;;10.75;3.00;;;2.20;99.90;;;;;;2084179;28;20103;-81
2023/03/15 01:37:30;;;;;;;9.95;3.55;;;2.20;99.90;;;;;;2083640;28;20119;-82
2023/03/15 01:38:31;;;;;;;9.60;3.30;;;2.20;99.90;;;;;;2069166;28;20037;-81
2023/03/15 01:39:32;;;;;;;10.35;3.28;;;2.30;99.90;;;;;;2073664;28;20079;-81
2023/03/15 01:40:33;;;;;;;9.40;3.50;;;2.30;99.90;;;;;;2083746;28;20060;-81
2023/03/15 01:41:35;;;;;;;11.43;3.45;;;2.30;99.90;;;;;;2079027;28;20025;-82
2023/03/15 01:43:10;;;;;;;10.35;3.58;;;2.30;99.90;;;;;;2089724;28;20073;-82
2023/03/15 01:44:14;;;;;;;9.20;3.28;;;2.30;99.90;;;;;;2084996;28;20062;-81
2023/03/15 01:45:55;;;;;;;12.07;3.80;;;2.30;99.90;;;;;;2071563;28;20171;-81
2023/03/15 01:46:56;;;;;;;13.57;4.88;;;2.30;99.90;;;;;;2082819;28;20029;-80
2023/03/15 01:47:58;;;;;;;15.05;5.40;;;2.30;99.90;;;;;;2082187;28;20083;-81
2023/03/15 01:49:04;;;;;;;17.65;6.60;;;2.30;99.90;;;;;;2092316;28;20094;-81
2023/03/15 01:50:10;;;;;;;16.60;7.05;;;2.30;99.90;;;;;;2077946;28;20035;-81
2023/03/15 01:51:27;;;;;;;18.60;7.63;;;2.30;99.90;;;;;;2083037;28;20174;-80
2023/03/15 01:52:33;;;;;;;17.98;7.25;;;2.30;99.90;;;;;;2085119;28;20029;-80
2023/03/15 01:53:36;;;;;;;19.15;7.55;;;2.30;99.90;;;;;;2083997;28;20021;-79
2023/03/15 01:54:42;;;;;;;19.15;7.38;;;2.30;99.90;;;;;;2081979;28;20037;-80
2023/03/15 01:55:43;;;;;;;18.33;6.28;;;2.30;99.90;;;;;;2074311;28;20068;-79
2023/03/15 01:56:53;;;;;;;16.45;6.07;;;2.30;99.90;;;;;;2074460;28;20033;-81
2023/03/15 01:57:58;;;;;;;17.98;5.90;;;2.30;99.90;;;;;;2090002;28;20514;-80
2023/03/15 01:59:04;;;;;;;14.57;5.50;;;2.20;99.90;;;;;;2082931;28;20028;-82
2023/03/15 02:00:18;;;;;;;12.10;5.15;;;2.20;99.90;;;;;;2078572;28;20112;-82
2023/03/15 02:01:25;;;;;;;14.45;4.88;;;2.20;99.90;;;;;;2081447;28;20132;-81
2023/03/15 02:02:26;;;;;;;12.55;4.30;;;2.20;99.90;;;;;;2081611;28;20424;-82
2023/03/15 02:03:34;;;;;;;13.02;4.55;;;2.20;99.90;;;;;;2084614;28;20112;-82
2023/03/15 02:04:48;;;;;;;12.13;4.65;;;2.20;99.90;;;;;;2082066;28;20417;-82
2023/03/15 02:06:00;;;;;;;10.32;4.18;;;2.20;99.90;;;;;;2077563;28;20709;-82
2023/03/15 02:07:12;;;;;;;12.15;3.95;;;2.10;99.90;;;;;;2092019;28;20036;-82
2023/03/15 02:08:16;;;;;;;11.52;4.18;;;2.10;99.90;;;;;;2067188;28;20424;-81
2023/03/15 02:09:18;;;;;;;9.15;3.60;;;2.10;99.90;;;;;;2076095;28;20061;-81
2023/03/15 02:10:30;;;;;;;12.50;4.35;;;2.10;99.90;;;;;;2082696;28;20579;-80
2023/03/15 02:11:33;;;;;;;9.90;3.95;;;2.10;99.90;;;;;;2084888;28;20345;-82
2023/03/15 02:12:41;;;;;;;9.90;3.95;;;2.00;99.90;;;;;;2086345;28;20020;-82
2023/03/15 02:13:43;;;;;;;15.35;4.07;;;2.00;99.90;;;;;;2088396;28;20402;-82
2023/03/15 02:14:45;;;;;;;12.52;4.43;;;2.10;99.90;;;;;;2082042;28;20017;-81
2023/03/15 02:15:52;;;;;;;12.85;3.67;;;2.00;99.90;;;;;;2084663;28;20025;-81
2023/03/15 02:16:58;;;;;;;12.85;3.42;;;2.00;99.90;;;;;;2077771;28;20117;-81
2023/03/15 02:17:59;;;;;;;13.45;3.80;;;2.00;99.90;;;;;;2082086;28;20417;-82
2023/03/15 02:18:59;;;;;;;10.98;3.53;;;2.00;99.90;;;;;;2089410;28;20028;-81
2023/03/15 02:20:17;;;;;;;9.52;3.42;;;2.00;99.90;;;;;;2090818;28;20486;-82
2023/03/15 02:21:34;;;;;;;11.75;3.70;;;2.00;99.90;;;;;;2080542;28;20048;-81
2023/03/15 02:22:54;;;;;;;8.48;2.90;;;2.00;99.90;;;;;;2085733;28;20126;-81
2023/03/15 02:24:19;;;;;;;10.27;3.33;;;2.10;99.90;;;;;;2083437;28;20028;-81
2023/03/15 02:25:33;;;;;;;9.45;2.97;;;2.00;99.90;;;;;;2079145;28;20021;-81
2023/03/15 02:26:47;;;;;;;11.48;3.50;;;2.00;99.90;;;;;;2084228;28;20037;-81
2023/03/15 02:27:48;;;;;;;12.07;3.35;;;2.10;99.90;;;;;;2085002;28;20020;-81
2023/03/15 02:28:50;;;;;;;10.10;3.47;;;2.10;99.90;;;;;;2086353;28;20032;-83
2023/03/15 02:29:53;;;;;;;10.75;3.25;;;2.10;99.90;;;;;;2091328;28;20136;-83
2023/03/15 02:30:54;;;;;;;8.23;3.00;;;2.10;99.90;;;;;;2090167;28;20021;-83
2023/03/15 02:31:56;;;;;;;12.32;2.92;;;2.10;99.90;;;;;;2089481;28;20025;-82
2023/03/15 02:33:02;;;;;;;8.85;2.95;;;2.10;99.90;;;;;;2087642;28;20135;-83
2023/03/15 02:34:06;;;;;;;8.10;3.08;;;2.10;99.90;;;;;;2081799;28;20412;-83
2023/03/15 02:35:07;;;;;;;8.98;2.67;;;2.20;99.90;;;;;;2084231;28;20033;-84
2023/03/15 02:36:23;;;;;;;8.45;2.80;;;2.20;99.90;;;;;;2079537;28;20475;-84
2023/03/15 02:37:24;;;;;;;8.07;2.80;;;2.20;99.90;;;;;;2092515;28;20437;-83
2023/03/15 02:38:24;;;;;;;10.52;2.90;;;2.20;99.90;;;;;;2084518;28;20120;-84
2023/03/15 02:39:26;;;;;;;9.30;3.00;;;2.20;99.90;;;;;;2079630;28;20025;-83
2023/03/15 02:40:28;;;;;;;11.23;2.75;;;2.20;99.90;;;;;;2082734;28;20034;-84
2023/03/15 02:41:31;;;;;;;7.78;2.72;;;2.20;99.90;;;;;;2083140;28;20024;-84
2023/03/15 02:42:32;;;;;;;9.88;3.05;;;2.20;99.90;;;;;;2076937;28;20361;-83
2023/03/15 02:43:33;;;;;;;11.80;3.08;;;2.20;99.90;;;;;;2077235;28;20042;-82
2023/03/15 02:44:38;;;;;;;5.80;2.35;;;2.20;99.90;;;;;;2082030;28;20033;-82
2023/03/15 02:45:39;;;;;;;10.65;3.10;;;2.20;99.90;;;;;;2081239;28;20026;-83
2023/03/15 02:46:42;;;;;;;9.57;3.20;;;2.20;99.90;;;;;;2090421;28;20079;-83
2023/03/15 02:47:44;;;;;;;9.30;3.10;;;2.20;99.90;;;;;;2090318;28;20183;-84
2023/03/15 02:48:46;;;;;;;9.75;2.95;;;2.20;99.90;;;;;;2082095;28;20025;-84
2023/03/15 02:49:52;;;;;;;9.90;2.63;;;2.10;99.90;;;;;;2081837;28;20029;-82
2023/03/15 02:50:53;;;;;;;6.97;2.47;;;2.10;99.90;;;;;;2075908;28;20065;-83
2023/03/15 02:51:53;;;;;;;9.63;2.60;;;2.10;99.90;;;;;;2068123;28;20030;-81
2023/03/15 02:52:54;;;;;;;8.75;2.90;;;2.10;99.90;;;;;;2081726;28;20040;-81
2023/03/15 02:53:56;;;;;;;7.53;2.50;;;2.10;99.90;;;;;;2083792;28;20025;-81
2023/03/15 02:54:56;;;;;;;9.80;2.80;;;2.10;99.90;;;;;;2073016;28;20031;-81
2023/03/15 02:55:57;;;;;;;10.43;2.83;;;2.00;99.90;;;;;;2077442;28;20036;-84
2023/03/15 02:56:58;;;;;;;11.90;3.00;;;2.00;99.90;;;;;;2077658;28;20079;-81
2023/03/15 02:58:00;;;;;;;9.15;2.80;;;2.00;99.90;;;;;;2062283;28;20030;-81
2023/03/15 02:59:00;;;;;;;9.55;3.28;;;2.00;99.90;;;;;;2072655;28;20538;-81
2023/03/15 03:00:12;;;;;;;10.43;2.78;;;2.00;99.90;;;;;;2076428;28;20080;-82
2023/03/15 03:01:16;;;;;;;8.98;3.10;;;2.00;99.90;;;;;;2077987;28;20940;-83
2023/03/15 03:02:17;;;;;;;9.75;2.75;;;2.00;99.90;;;;;;2078019;28;20029;-83
2023/03/15 03:03:17;;;;;;;8.52;3.00;;;1.90;99.90;;;;;;2077607;28;20500;-83
2023/03/15 03:04:18;;;;;;;8.82;2.67;;;1.90;99.90;;;;;;2077411;28;20057;-84
2023/03/15 03:05:19;;;;;;;9.77;2.92;;;1.90;99.90;;;;;;2083878;28;20425;-84
2023/03/15 03:06:20;;;;;;;9.68;3.00;;;1.90;99.90;;;;;;2072077;28;20049;-83
2023/03/15 03:07:21;;;;;;;7.43;2.97;;;1.90;99.90;;;;;;2077270;28;20072;-81
2023/03/15 03:08:26;;;;;;;9.48;2.90;;;1.90;99.90;;;;;;2077792;28;20087;-83
2023/03/15 03:09:28;;;;;;;11.48;3.10;;;1.90;99.90;;;;;;2071369;28;20436;-82
2023/03/15 03:10:28;;;;;;;7.18;2.70;;;1.90;99.90;;;;;;2075666;28;20061;-82
2023/03/15 03:11:31;;;;;;;9.95;3.35;;;1.90;99.90;;;;;;2085768;28;20025;-80
2023/03/15 03:12:32;;;;;;;9.68;3.15;;;1.80;99.90;;;;;;2081792;28;20689;-81
2023/03/15 03:13:32;;;;;;;7.53;3.10;;;1.80;99.90;;;;;;2078137;28;20037;-81
2023/03/15 03:14:36;;;;;;;11.50;3.05;;;1.80;99.90;;;;;;2078247;28;20025;-84
2023/03/15 03:15:39;;;;;;;9.80;3.30;;;1.80;99.90;;;;;;2075500;28;20036;-81
2023/03/15 03:16:41;;;;;;;7.00;3.20;;;1.80;99.90;;;;;;2077231;28;20035;-75
2023/03/15 03:17:42;;;;;;;9.13;3.20;;;1.80;99.90;;;;;;2080257;28;20028;-75
2023/03/15 03:18:43;;;;;;;10.05;3.42;;;1.80;99.90;;;;;;2082485;28;20112;-75
2023/03/15 03:19:44;;;;;;;11.27;3.35;;;1.70;99.90;;;;;;2069098;28;20034;-76
2023/03/15 03:20:45;;;;;;;10.07;3.50;;;1.70;99.90;;;;;;2079403;28;20033;-75
2023/03/15 03:21:46;;;;;;;9.93;3.22;;;1.80;99.90;;;;;;2079381;28;20032;-76
2023/03/15 03:22:46;;;;;;;9.15;3.10;;;1.70;99.90;;;;;;2078084;28;20371;-75
2023/03/15 03:23:47;;;;;;;10.30;3.45;;;1.70;99.90;;;;;;2075262;28;20375;-76
2023/03/15 03:24:47;;;;;;;8.90;3.15;;;1.70;99.90;;;;;;2077892;28;20412;-76
2023/03/15 03:25:53;;;;;;;7.05;3.10;;;1.70;99.90;;;;;;2075147;28;20025;-76
2023/03/15 03:26:56;;;;;;;9.85;3.58;;;1.70;99.90;;;;;;2079537;28;20029;-75
2023/03/15 03:27:58;;;;;;;9.85;3.22;;;1.70;99.90;;;;;;2076876;28;20096;-75
2023/03/15 03:29:02;;;;;;;9.10;3.00;;;1.70;99.90;;;;;;2067977;28;20065;-76
2023/03/15 03:30:06;;;;;;;8.63;3.22;;;1.70;99.90;;;;;;2061579;28;20548;-76
2023/03/15 03:31:15;;;;;;;9.35;3.30;;;1.70;99.90;;;;;;2069319;28;20365;-75
2023/03/15 03:32:16;;;;;;;10.23;3.40;;;1.60;99.90;;;;;;2071049;28;20025;-75
2023/03/15 03:33:16;;;;;;;12.50;3.15;;;1.60;99.90;;;;;;2068461;28;20117;-75
2023/03/15 03:34:18;;;;;;;10.77;3.10;;;1.60;99.90;;;;;;2070803;28;20033;-75
2023/03/15 03:35:19;;;;;;;12.25;3.58;;;1.60;99.90;;;;;;2059259;28;20030;-75
2023/03/15 03:36:19;;;;;;;10.40;3.30;;;1.60;99.90;;;;;;2084213;28;20439;-75
2023/03/15 03:37:20;;;;;;;7.85;3.28;;;1.60;99.90;;;;;;2073260;28;20081;-74
2023/03/15 03:38:32;;;;;;;10.65;3.42;;;1.50;99.90;;;;;;2077825;28;20112;-75
2023/03/15 03:39:35;;;;;;;10.60;3.53;;;1.50;99.90;;;;;;2079666;28;20029;-75
2023/03/15 03:40:37;;;;;;;9.70;2.92;;;1.50;99.90;;;;;;2079244;28;20408;-75
2023/03/15 03:41:39;;;;;;;8.73;2.90;;;1.50;99.90;;;;;;2066066;28;20496;-75
2023/03/15 03:42:43;;;;;;;7.85;3.05;;;1.50;99.90;;;;;;2069373;28;20055;-75
2023/03/15 03:43:44;;;;;;;9.15;3.08;;;1.40;99.90;;;;;;2076396;28;20491;-75
2023/03/15 03:44:45;;;;;;;12.57;3.50;;;1.40;99.90;;;;;;2078292;28;20539;-75
2023/03/15 03:45:46;;;;;;;8.98;3.47;;;1.40;99.90;;;;;;2080522;28;20056;-76
2023/03/15 03:46:47;;;;;;;12.57;4.00;;;1.40;99.90;;;;;;2079507;28;20029;-75
2023/03/15 03:47:49;;;;;;;13.40;4.00;;;1.40;99.90;;;;;;2076418;28;20025;-75
2023/03/15 03:48:50;;;;;;;16.58;4.75;;;1.40;99.90;;;;;;2078902;28;20135;-75
2023/03/15 03:49:50;;;;;;;16.85;5.55;;;1.40;99.90;;;;;;2087665;28;20029;-75
2023/03/15 03:50:51;;;;;;;20.48;5.50;;;1.40;99.90;;;;;;2088153;28;20491;-77
2023/03/15 03:51:51;;;;;;;17.27;5.45;;;1.40;99.90;;;;;;2086167;28;20053;-75
2023/03/15 03:52:52;;;;;;;20.10;6.53;;;1.40;99.90;;;;;;2086223;28;20020;-75
2023/03/15 03:53:58;;;;;;;17.25;5.60;;;1.40;99.90;;;;;;2085178;28;20035;-75
2023/03/15 03:54:59;;;;;;;18.30;5.22;;;1.40;99.90;;;;;;2085109;28;20539;-75
2023/03/15 03:56:02;;;;;;;22.60;6.07;;;1.40;99.90;;;;;;2076384;28;22982;-76
2023/03/15 03:57:04;;;;;;;17.05;4.82;;;1.30;99.90;;;;;;2078515;28;20108;-75
2023/03/15 03:58:08;;;;;;;19.00;6.47;;;1.40;99.90;;;;;;2087478;28;20021;-75
2023/03/15 03:59:14;;;;;;;28.05;8.55;;;1.40;99.90;;;;;;2074678;28;20026;-76
2023/03/15 04:00:24;;;;;;;37.00;9.77;;;1.40;99.90;;;;;;2061602;28;20398;-75
2023/03/15 04:01:25;;;;;;;31.10;9.95;;;1.40;99.90;;;;;;2062998;28;20034;-76
2023/03/15 04:02:28;;;;;;;29.02;9.52;;;1.40;99.90;;;;;;2071454;28;20037;-76
2023/03/15 04:03:36;;;;;;;31.58;9.48;;;1.40;99.90;;;;;;2070609;28;20072;-76
2023/03/15 04:04:41;;;;;;;26.65;8.80;;;1.40;99.90;;;;;;2073378;28;20036;-76
2023/03/15 04:05:47;;;;;;;20.50;7.38;;;1.40;99.90;;;;;;2089252;28;20133;-75
2023/03/15 04:06:53;;;;;;;18.88;4.65;;;1.40;99.90;;;;;;2075850;28;20045;-75
2023/03/15 04:07:58;;;;;;;13.23;4.40;;;1.40;99.90;;;;;;2079830;28;20340;-75
2023/03/15 04:09:03;;;;;;;16.23;4.30;;;1.50;99.90;;;;;;2062748;28;20085;-75
2023/03/15 04:10:13;;;;;;;12.13;3.60;;;1.50;99.90;;;;;;2072530;28;20068;-75
2023/03/15 04:11:16;;;;;;;11.00;3.33;;;1.50;99.90;;;;;;2086062;28;20061;-76
2023/03/15 04:12:18;;;;;;;27.42;9.15;;;1.50;99.90;;;;;;2077997;28;20128;-75
2023/03/15 04:13:21;;;;;;;22.90;8.13;;;1.60;99.90;;;;;;2080983;28;20057;-76
2023/03/15 04:14:23;;;;;;;19.95;6.57;;;1.60;99.90;;;;;;2085681;28;20071;-76
2023/03/15 04:15:24;;;;;;;16.10;5.30;;;1.60;99.90;;;;;;2081985;28;20450;-76
2023/03/15 04:16:24;;;;;;;11.65;4.57;;;1.50;99.90;;;;;;2087563;28;20114;-75
2023/03/15 04:17:37;;;;;;;12.98;4.10;;;1.60;99.90;;;;;;2080591;28;20032;-76
2023/03/15 04:18:39;;;;;;;10.02;3.95;;;1.60;99.90;;;;;;2087474;28;20039;-75
2023/03/15 04:19:39;;;;;;;8.40;3.47;;;1.50;99.90;;;;;;2088182;28;20029;-76
2023/03/15 04:20:47;;;;;;;10.70;3.50;;;1.50;99.90;;;;;;2077858;28;20319;-75
2023/03/15 04:21:51;;;;;;;7.53;3.20;;;1.50;99.90;;;;;;2078568;28;20492;-75
2023/03/15 04:23:01;;;;;;;12.07;4.40;;;1.50;99.90;;;;;;2073948;28;20102;-75
2023/03/15 04:24:14;;;;;;;11.60;4.00;;;1.50;99.90;;;;;;2080258;28;20029;-76
2023/03/15 04:25:33;;;;;;;12.85;4.00;;;1.50;99.90;;;;;;2072403;28;20036;-75
2023/03/15 04:26:56;;;;;;;10.45;3.30;;;1.50;99.90;;;;;;2080331;28;20045;-74
2023/03/15 04:28:16;;;;;;;9.30;3.50;;;1.50;99.90;;;;;;2083428;28;20033;-75
2023/03/15 04:29:37;;;;;;;11.60;3.40;;;1.50;99.90;;;;;;2082137;28;20037;-75
2023/03/15 04:30:57;;;;;;;8.85;3.00;;;1.50;99.90;;;;;;2086225;28;20614;-75
2023/03/15 04:32:21;;;;;;;9.27;3.50;;;1.50;99.90;;;;;;2076500;28;20041;-74
2023/03/15 04:33:56;;;;;;;9.00;3.08;;;1.50;99.90;;;;;;2076607;28;20124;-75
2023/03/15 04:35:10;;;;;;;12.65;3.47;;;1.50;99.90;;;;;;2084557;28;20040;-75
2023/03/15 04:36:22;;;;;;;11.27;3.33;;;1.50;99.90;;;;;;2077764;28;20588;-74
2023/03/15 04:37:46;;;;;;;11.38;2.85;;;1.40;99.90;;;;;;2072418;28;20105;-76
2023/03/15 04:39:08;;;;;;;9.00;3.38;;;1.40;99.90;;;;;;2085756;28;20131;-74
2023/03/15 04:40:23;;;;;;;10.80;3.00;;;1.40;99.90;;;;;;2084613;28;20031;-74
2023/03/15 04:41:43;;;;;;;9.20;3.22;;;1.40;99.90;;;;;;2088099;28;20052;-75
2023/03/15 04:43:14;;;;;;;11.95;3.33;;;1.40;99.90;;;;;;2080927;28;20037;-75
2023/03/15 04:44:26;;;;;;;9.40;3.25;;;1.40;99.90;;;;;;2078813;28;20028;-75
2023/03/15 04:45:44;;;;;;;8.85;3.10;;;1.40;99.90;;;;;;2080938;28;20112;-76
2023/03/15 04:47:04;;;;;;;8.02;3.00;;;1.40;99.90;;;;;;2075115;28;20045;-76
2023/03/15 04:48:25;;;;;;;10.10;3.05;;;1.40;99.90;;;;;;2074788;28;20513;-75
2023/03/15 04:49:40;;;;;;;11.13;2.85;;;1.30;99.90;;;;;;2078888;28;20068;-76
2023/03/15 04:50:54;;;;;;;9.68;3.35;;;1.40;99.90;;;;;;2089106;28;20060;-76
2023/03/15 04:52:15;;;;;;;9.18;3.20;;;1.40;99.90;;;;;;2082504;28;20037;-76
2023/03/15 04:53:38;;;;;;;11.77;3.55;;;1.40;99.90;;;;;;2082849;28;20048;-76
2023/03/15 04:55:05;;;;;;;7.32;3.10;;;1.40;99.90;;;;;;2076957;28;20079;-76
2023/03/15 04:56:30;;;;;;;10.32;3.50;;;1.40;99.90;;;;;;2085773;28;20055;-75
2023/03/15 04:57:45;;;;;;;11.75;3.33;;;1.40;99.90;;;;;;2084340;28;20024;-75
2023/03/15 04:59:05;;;;;;;12.57;4.22;;;1.40;99.90;;;;;;2074172;28;20047;-74
2023/03/15 05:00:24;;;;;;;13.65;3.63;;;1.40;99.90;;;;;;2075555;28;20067;-76
2023/03/15 05:01:44;;;;;;;14.35;3.63;;;1.40;99.90;;;;;;2077636;28;20025;-75
2023/03/15 05:02:54;;;;;;;11.07;3.75;;;1.40;99.90;;;;;;2076026;28;20029;-76
2023/03/15 05:04:18;;;;;;;10.50;3.70;;;1.40;99.90;;;;;;2083014;28;20127;-74
2023/03/15 05:05:38;;;;;;;11.75;3.80;;;1.40;99.90;;;;;;2086947;28;20495;-75
2023/03/15 05:06:47;;;;;;;8.52;3.65;;;1.40;99.90;;;;;;2087620;28;20045;-75
2023/03/15 05:08:01;;;;;;;15.07;2.90;;;1.30;99.90;;;;;;2086640;28;20029;-76
2023/03/15 05:09:22;;;;;;;11.00;3.00;;;1.40;99.90;;;;;;2071511;28;20307;-75
2023/03/15 05:10:43;;;;;;;8.50;2.85;;;1.50;99.90;;;;;;2085975;28;20049;-76
2023/03/15 05:12:06;;;;;;;10.23;2.83;;;1.50;99.90;;;;;;2086015;28;20017;-76
2023/03/15 05:13:17;;;;;;;8.18;3.00;;;1.50;99.90;;;;;;2083398;28;20082;-76
2023/03/15 05:14:33;;;;;;;12.23;3.05;;;1.40;99.90;;;;;;2079039;28;20227;-76
2023/03/15 05:16:06;;;;;;;9.02;2.90;;;1.40;99.90;;;;;;2086301;28;20033;-75
2023/03/15 05:17:16;;;;;;;10.10;3.28;;;1.40;99.90;;;;;;2084418;28;20037;-76
2023/03/15 05:18:47;;;;;;;12.60;3.50;;;1.40;99.90;;;;;;2085743;28;20033;-75
2023/03/15 05:20:09;;;;;;;13.07;3.63;;;1.40;99.90;;;;;;2083821;28;20013;-76
2023/03/15 05:21:21;;;;;;;11.00;3.10;;;1.40;99.90;;;;;;2084304;28;20078;-76
2023/03/15 05:22:48;;;;;;;10.30;3.38;;;1.40;99.90;;;;;;2086429;28;20079;-76
2023/03/15 05:23:58;;;;;;;8.07;2.92;;;1.50;99.90;;;;;;2086994;28;20382;-76
2023/03/15 05:25:23;;;;;;;12.85;3.20;;;1.40;99.90;;;;;;2080901;28;20124;-76
2023/03/15 05:26:45;;;;;;;9.15;3.00;;;1.40;99.90;;;;;;2085415;28;20037;-80
2023/03/15 05:28:03;;;;;;;10.30;3.00;;;1.40;99.90;;;;;;2088406;28;20021;-78
2023/03/15 05:29:14;;;;;;;11.15;3.05;;;1.40;99.90;;;;;;2083149;28;20028;-78
2023/03/15 05:30:53;;;;;;;7.75;2.80;;;1.40;99.90;;;;;;2075587;28;20098;-79
2023/03/15 05:32:16;;;;;;;12.18;3.40;;;1.40;99.90;;;;;;2069466;28;20416;-77
2023/03/15 05:33:35;;;;;;;14.57;3.17;;;1.40;99.90;;;;;;2081904;28;20909;-78
2023/03/15 05:34:48;;;;;;;8.32;2.95;;;1.40;99.90;;;;;;2079355;28;20463;-74
2023/03/15 05:36:16;;;;;;;16.40;3.10;;;1.40;99.90;;;;;;2077586;28;20462;-73
2023/03/15 05:37:35;;;;;;;12.43;3.17;;;1.40;99.90;;;;;;2084794;28;20040;-75
2023/03/15 05:38:50;;;;;;;12.02;3.00;;;1.50;99.90;;;;;;2087163;28;20298;-75
2023/03/15 05:40:11;;;;;;;8.23;2.67;;;1.50;99.90;;;;;;2070838;28;20116;-75
2023/03/15 05:41:29;;;;;;;8.25;2.90;;;1.60;99.90;;;;;;2081894;28;20033;-76
2023/03/15 05:42:43;;;;;;;10.75;3.30;;;1.60;99.90;;;;;;2071028;28;20028;-75
2023/03/15 05:44:06;;;;;;;11.95;3.17;;;1.70;99.90;;;;;;2082410;28;20492;-73
2023/03/15 05:45:15;;;;;;;12.65;2.90;;;1.70;99.90;;;;;;2079439;28;20579;-74
2023/03/15 05:46:47;;;;;;;9.65;2.92;;;1.70;99.90;;;;;;2081340;28;20055;-72
2023/03/15 05:48:06;;;;;;;14.20;2.72;;;1.70;99.90;;;;;;2087693;28;20031;-75